Time;durP1;ratioP1;P1;durP2;ratioP2;P2;SDS_P1;SDS_P2;PMS_P1;PMS_P2;Temp;Humidity;BMP_temperature;BMP_pressure;BME280_temperature;BME280_humidity;BME280_pressure;Samples;Min_cycle;Max_cycle;Signal;HPM_P1;HPM_P2
2023/04/25 00:00:54;;;;;;;4.07;1.17;;;16.20;1.00;;;;;;5012084;28;20096;-42
2023/04/25 00:03:20;;;;;;;8.07;1.83;;;16.20;1.00;;;;;;5011550;28;20450;-43
2023/04/25 00:05:48;;;;;;;5.50;1.20;;;16.20;1.00;;;;;;5011886;28;20049;-42
2023/04/25 00:08:15;;;;;;;9.82;1.52;;;16.20;1.00;;;;;;5012110;28;20046;-42
2023/04/25 00:10:42;;;;;;;8.05;1.42;;;16.20;1.00;;;;;;5011971;28;20440;-42
2023/04/25 00:13:11;;;;;;;4.10;1.52;;;16.20;1.00;;;;;;5011670;28;20077;-43
2023/04/25 00:15:38;;;;;;;6.25;1.55;;;16.20;1.00;;;;;;5011967;28;20068;-45
2023/04/25 00:18:06;;;;;;;5.07;1.27;;;16.20;1.00;;;;;;5011816;28;20042;-43
2023/04/25 00:20:33;;;;;;;8.95;1.80;;;16.20;1.00;;;;;;5011979;28;20041;-42
2023/04/25 00:23:00;;;;;;;1.73;0.70;;;16.20;1.00;;;;;;5011426;28;20124;-43
2023/04/25 00:25:26;;;;;;;4.47;0.88;;;16.10;1.00;;;;;;5012127;28;20034;-42
2023/04/25 00:27:53;;;;;;;4.57;1.15;;;16.10;1.00;;;;;;5014229;28;20041;-42
2023/04/25 00:30:20;;;;;;;3.97;1.05;;;16.10;1.00;;;;;;5015649;28;20084;-41
2023/04/25 00:32:47;;;;;;;4.75;1.48;;;16.10;1.00;;;;;;5014360;28;20050;-44
2023/04/25 00:35:13;;;;;;;7.45;1.48;;;16.10;1.00;;;;;;5014194;28;20052;-44
2023/04/25 00:37:40;;;;;;;3.78;1.13;;;16.10;1.00;;;;;;5014153;28;20046;-43
2023/04/25 00:40:08;;;;;;;3.97;1.48;;;16.10;1.00;;;;;;5015681;28;20456;-42
2023/04/25 00:42:36;;;;;;;6.47;1.60;;;16.10;1.00;;;;;;5015403;28;20034;-43
2023/04/25 00:45:06;;;;;;;4.55;1.92;;;16.10;1.00;;;;;;5013992;28;20496;-44
2023/04/25 00:47:33;;;;;;;2.97;0.98;;;16.10;1.00;;;;;;5015532;28;20481;-42
2023/04/25 00:50:00;;;;;;;3.72;1.30;;;16.10;1.00;;;;;;5015385;28;20080;-43
2023/04/25 00:52:27;;;;;;;3.33;0.70;;;16.10;1.00;;;;;;5015434;28;20037;-42
2023/04/25 00:54:53;;;;;;;6.03;1.40;;;16.10;1.00;;;;;;5013841;28;20116;-42
2023/04/25 00:57:20;;;;;;;6.47;1.40;;;16.10;1.00;;;;;;5014029;28;20042;-44
2023/04/25 00:59:50;;;;;;;5.90;1.13;;;16.10;1.00;;;;;;5015463;28;20393;-44
2023/04/25 01:02:17;;;;;;;5.15;1.83;;;16.10;1.00;;;;;;5015086;28;20445;-42
2023/04/25 01:04:44;;;;;;;3.15;0.88;;;16.00;1.00;;;;;;5014689;28;20053;-43
2023/04/25 01:07:11;;;;;;;4.57;0.98;;;16.10;1.00;;;;;;5015024;28;20441;-44
2023/04/25 01:09:38;;;;;;;6.35;1.17;;;16.00;1.00;;;;;;5013800;28;20041;-43
2023/04/25 01:12:05;;;;;;;6.68;1.63;;;16.00;1.00;;;;;;5013864;28;20489;-45
2023/04/25 01:14:32;;;;;;;6.65;1.23;;;16.00;1.00;;;;;;5013297;28;20088;-42
2023/04/25 01:16:59;;;;;;;5.63;1.55;;;16.00;1.00;;;;;;5013574;28;20642;-43
2023/04/25 01:19:26;;;;;;;5.82;1.00;;;16.00;1.00;;;;;;5014923;28;20477;-43
2023/04/25 01:21:53;;;;;;;4.88;1.10;;;16.00;1.00;;;;;;5014669;28;20053;-43
2023/04/25 01:24:20;;;;;;;2.85;1.27;;;16.00;1.00;;;;;;5014222;28;20064;-43
2023/04/25 01:26:51;;;;;;;5.32;1.30;;;16.00;1.00;;;;;;5014762;28;20125;-43
2023/04/25 01:29:23;;;;;;;7.72;1.20;;;16.00;1.00;;;;;;5013515;28;20038;-43
2023/04/25 01:31:52;;;;;;;4.63;1.10;;;16.00;1.00;;;;;;5013146;28;20132;-42
2023/04/25 01:34:19;;;;;;;4.30;1.27;;;16.00;1.00;;;;;;5013081;28;20571;-43
2023/04/25 01:36:49;;;;;;;4.45;1.08;;;16.00;1.00;;;;;;5013448;28;20046;-43
2023/04/25 01:39:17;;;;;;;2.65;1.50;;;16.00;1.00;;;;;;5012356;28;20049;-43
2023/04/25 01:41:45;;;;;;;9.70;1.92;;;16.00;1.00;;;;;;5014382;28;20045;-43
2023/04/25 01:44:13;;;;;;;7.40;1.98;;;15.90;1.00;;;;;;5012701;28;20042;-43
2023/04/25 01:46:40;;;;;;;3.80;1.40;;;15.90;1.00;;;;;;5013294;28;20043;-43
2023/04/25 01:49:07;;;;;;;8.35;1.00;;;15.90;1.00;;;;;;5013032;28;20041;-43
2023/04/25 01:51:35;;;;;;;3.55;1.30;;;15.90;1.00;;;;;;5013067;28;20088;-42
2023/04/25 01:54:02;;;;;;;5.70;1.42;;;15.90;1.00;;;;;;5012578;28;20455;-43
2023/04/25 01:56:33;;;;;;;4.07;1.02;;;15.90;1.00;;;;;;5013101;28;20050;-42
2023/04/25 01:59:00;;;;;;;7.00;1.10;;;15.90;1.00;;;;;;5012877;28;20049;-43
2023/04/25 02:01:55;;;;;;;8.48;1.98;;;15.90;1.00;;;;;;5012684;28;20046;-42
2023/04/25 02:04:27;;;;;;;5.28;1.10;;;15.90;1.00;;;;;;5012478;28;20050;-43
2023/04/25 02:06:54;;;;;;;3.60;0.85;;;15.90;1.00;;;;;;5012632;28;20501;-44
2023/04/25 02:09:23;;;;;;;2.55;0.93;;;15.90;1.00;;;;;;5012670;28;20137;-43
2023/04/25 02:11:53;;;;;;;2.85;1.13;;;15.90;1.00;;;;;;5012525;28;20065;-43
2023/04/25 02:14:34;;;;;;;5.65;1.90;;;15.90;1.00;;;;;;5012178;28;20129;-43
2023/04/25 02:17:10;;;;;;;4.07;1.63;;;15.90;1.00;;;;;;5012698;28;20041;-43
2023/04/25 02:19:37;;;;;;;5.80;0.80;;;15.80;1.00;;;;;;5013133;28;20497;-43
2023/04/25 02:22:04;;;;;;;4.70;1.50;;;15.80;1.00;;;;;;5013347;28;20379;-43
2023/04/25 02:24:31;;;;;;;3.83;0.75;;;15.80;1.00;;;;;;5013626;28;20125;-43
2023/04/25 02:26:58;;;;;;;3.15;0.85;;;15.80;1.00;;;;;;5013032;28;20048;-43
2023/04/25 02:29:25;;;;;;;2.97;0.80;;;15.80;1.00;;;;;;5014447;28;20064;-42
2023/04/25 02:31:51;;;;;;;2.42;0.88;;;15.80;1.00;;;;;;5012988;28;20108;-43
2023/04/25 02:34:18;;;;;;;3.75;0.90;;;15.80;1.00;;;;;;5012440;28;20077;-44
2023/04/25 02:36:45;;;;;;;2.78;0.55;;;15.80;1.00;;;;;;5012509;28;20493;-43
2023/04/25 02:39:12;;;;;;;5.15;1.30;;;15.80;1.00;;;;;;5013361;28;20094;-43
2023/04/25 02:41:39;;;;;;;4.32;0.63;;;15.80;1.00;;;;;;5012053;28;20052;-42
2023/04/25 02:44:05;;;;;;;4.50;1.05;;;15.80;1.00;;;;;;5011408;28;20049;-43
2023/04/25 02:46:32;;;;;;;4.85;0.93;;;15.80;1.00;;;;;;5012068;28;20049;-44
2023/04/25 02:49:06;;;;;;;3.80;0.68;;;15.80;1.00;;;;;;5011856;28;20049;-43
2023/04/25 02:51:34;;;;;;;3.35;0.70;;;15.70;1.00;;;;;;5011937;28;20446;-44
2023/04/25 02:54:01;;;;;;;3.95;0.90;;;15.70;1.00;;;;;;5011555;28;20556;-44
2023/04/25 02:56:28;;;;;;;4.97;0.80;;;15.70;1.00;;;;;;5011860;28;20068;-44
2023/04/25 02:58:55;;;;;;;1.73;0.63;;;15.70;1.00;;;;;;5011664;28;20497;-42
2023/04/25 03:01:22;;;;;;;1.30;0.70;;;15.70;1.00;;;;;;5011732;28;20049;-43
2023/04/25 03:03:49;;;;;;;4.03;1.33;;;15.70;1.00;;;;;;5012460;28;20046;-42
2023/04/25 03:06:16;;;;;;;6.50;1.00;;;15.70;1.00;;;;;;5011568;28;20042;-44
2023/04/25 03:08:43;;;;;;;6.00;1.05;;;15.70;1.00;;;;;;5011737;28;20042;-43
2023/04/25 03:11:10;;;;;;;5.55;1.40;;;15.70;1.00;;;;;;5011587;28;20046;-43
2023/04/25 03:13:37;;;;;;;5.13;0.90;;;15.70;1.00;;;;;;5011201;28;20094;-43
2023/04/25 03:16:05;;;;;;;2.25;0.68;;;15.70;1.00;;;;;;5011363;28;20136;-44
2023/04/25 03:18:32;;;;;;;6.07;1.17;;;15.70;1.00;;;;;;5011654;28;20041;-43
2023/04/25 03:20:59;;;;;;;3.65;1.38;;;15.70;1.00;;;;;;5012611;28;20045;-45
2023/04/25 03:23:26;;;;;;;3.47;0.90;;;15.70;1.00;;;;;;5010961;28;20490;-45
2023/04/25 03:25:53;;;;;;;5.20;0.95;;;15.70;1.00;;;;;;5012518;28;20047;-43
2023/04/25 03:28:20;;;;;;;3.10;0.98;;;15.70;1.00;;;;;;5011545;28;20430;-43
2023/04/25 03:30:47;;;;;;;1.27;0.60;;;15.70;1.00;;;;;;5012538;28;20042;-43
2023/04/25 03:33:14;;;;;;;5.00;1.65;;;15.70;1.00;;;;;;5012212;28;20274;-42
2023/04/25 03:35:42;;;;;;;2.67;0.95;;;15.60;1.00;;;;;;5011373;28;20132;-42
2023/04/25 03:38:09;;;;;;;6.95;0.77;;;15.60;1.00;;;;;;5011096;28;20068;-43
2023/04/25 03:40:39;;;;;;;4.70;0.80;;;15.60;1.00;;;;;;5011325;28;20062;-43
2023/04/25 03:43:16;;;;;;;4.15;1.10;;;15.60;1.00;;;;;;5010481;28;20038;-43
2023/04/25 03:45:49;;;;;;;5.00;1.00;;;15.60;1.00;;;;;;5011041;28;20052;-44
2023/04/25 03:48:24;;;;;;;5.20;0.65;;;15.60;1.00;;;;;;5011177;28;20668;-42
2023/04/25 03:50:52;;;;;;;3.42;0.77;;;15.60;1.00;;;;;;5012172;28;20053;-45
2023/04/25 03:53:19;;;;;;;4.40;1.35;;;15.60;1.00;;;;;;5010780;28;20038;-43
2023/04/25 03:56:09;;;;;;;3.33;0.82;;;15.60;1.00;;;;;;5006455;28;20081;-43
2023/04/25 03:58:38;;;;;;;7.60;1.45;;;15.60;1.00;;;;;;5010828;28;20038;-43
2023/04/25 04:01:07;;;;;;;2.63;0.70;;;15.60;1.00;;;;;;5010678;28;20386;-43
2023/04/25 04:03:36;;;;;;;5.13;0.77;;;15.60;1.00;;;;;;5010141;28;20049;-43
2023/04/25 04:06:05;;;;;;;4.00;1.08;;;15.60;1.00;;;;;;5010760;28;20398;-43
2023/04/25 04:08:36;;;;;;;3.58;0.98;;;15.60;1.00;;;;;;5010725;28;20576;-43
2023/04/25 04:11:02;;;;;;;4.32;1.20;;;15.60;1.00;;;;;;5010776;28;20050;-42
2023/04/25 04:13:29;;;;;;;7.47;1.30;;;15.60;1.00;;;;;;5010484;28;20124;-43
2023/04/25 04:15:57;;;;;;;3.85;0.82;;;15.60;1.00;;;;;;5010508;28;20046;-43
2023/04/25 04:18:24;;;;;;;6.30;1.30;;;15.60;1.00;;;;;;5010879;28;20053;-43
2023/04/25 04:20:52;;;;;;;2.88;0.60;;;15.60;1.00;;;;;;5010432;28;20074;-45
2023/04/25 04:23:20;;;;;;;2.35;0.80;;;15.60;1.00;;;;;;5011458;28;20110;-45
2023/04/25 04:25:47;;;;;;;8.02;1.23;;;15.60;1.00;;;;;;5009035;28;20048;-44
2023/04/25 04:28:35;;;;;;;13.15;1.83;;;15.60;1.00;;;;;;5010780;28;20045;-43
2023/04/25 04:31:15;;;;;;;3.40;0.90;;;15.50;1.00;;;;;;5010073;28;20497;-44
2023/04/25 04:33:42;;;;;;;3.22;0.80;;;15.50;1.00;;;;;;5010194;28;20137;-44
2023/04/25 04:36:09;;;;;;;8.98;1.85;;;15.50;1.00;;;;;;5010359;28;20496;-45
2023/04/25 04:38:37;;;;;;;2.22;0.70;;;15.50;1.00;;;;;;5010576;28;20044;-46
2023/04/25 04:41:07;;;;;;;7.25;1.30;;;15.50;1.00;;;;;;5010268;28;20390;-46
2023/04/25 04:43:48;;;;;;;2.03;0.77;;;15.50;1.00;;;;;;5010086;28;20050;-43
2023/04/25 04:46:41;;;;;;;2.03;0.52;;;15.50;1.00;;;;;;5010516;28;20041;-43
2023/04/25 04:49:32;;;;;;;3.08;0.88;;;15.50;1.00;;;;;;5008557;28;20042;-42
2023/04/25 04:52:17;;;;;;;4.20;1.17;;;15.50;1.00;;;;;;5002855;28;20044;-44
2023/04/25 04:55:08;;;;;;;4.13;0.73;;;15.50;1.00;;;;;;4991679;28;20093;-43
2023/04/25 04:57:53;;;;;;;4.28;0.65;;;15.40;1.00;;;;;;5010353;28;20048;-43
2023/04/25 05:00:38;;;;;;;7.35;1.00;;;15.40;1.00;;;;;;5011902;28;20056;-42
2023/04/25 05:03:24;;;;;;;3.53;0.70;;;15.40;1.00;;;;;;5004521;28;20048;-45
2023/04/25 05:06:03;;;;;;;7.03;0.95;;;15.40;1.00;;;;;;5010157;28;20057;-43
2023/04/25 05:08:46;;;;;;;4.13;0.68;;;15.40;1.00;;;;;;5010251;28;20056;-42
2023/04/25 05:11:31;;;;;;;1.95;0.65;;;15.40;1.00;;;;;;5005600;28;20062;-42
2023/04/25 05:14:18;;;;;;;9.55;1.67;;;15.40;1.00;;;;;;5011953;28;20050;-42
2023/04/25 05:17:06;;;;;;;3.40;0.40;;;15.40;1.00;;;;;;5013656;28;20405;-42
2023/04/25 05:19:54;;;;;;;6.32;0.85;;;15.40;1.00;;;;;;5013288;28;20070;-43
2023/04/25 05:22:44;;;;;;;3.08;1.83;;;15.40;1.00;;;;;;5013636;28;20062;-43
2023/04/25 05:25:31;;;;;;;3.95;0.75;;;15.40;1.00;;;;;;4983805;28;20128;-45
2023/04/25 05:28:16;;;;;;;3.55;0.75;;;15.40;1.00;;;;;;5014849;28;20053;-43
2023/04/25 05:30:52;;;;;;;9.38;1.20;;;15.40;1.00;;;;;;5013662;28;20524;-43
2023/04/25 05:33:25;;;;;;;4.93;1.10;;;15.40;1.00;;;;;;5013083;28;20034;-43
2023/04/25 05:35:52;;;;;;;1.95;0.95;;;15.40;1.00;;;;;;5013440;28;20575;-46
2023/04/25 05:38:19;;;;;;;3.05;0.80;;;15.40;1.00;;;;;;5013422;28;20452;-43
2023/04/25 05:41:05;;;;;;;7.18;0.73;;;15.40;1.00;;;;;;5014457;28;20526;-43
2023/04/25 05:43:46;;;;;;;4.63;0.70;;;15.30;1.00;;;;;;5012667;28;20465;-43
2023/04/25 05:46:23;;;;;;;4.15;0.90;;;15.30;1.00;;;;;;5013129;28;20050;-43
2023/04/25 05:49:04;;;;;;;2.83;0.68;;;15.30;1.00;;;;;;5013115;28;20544;-43
2023/04/25 05:51:53;;;;;;;5.97;0.98;;;15.30;1.00;;;;;;5014819;28;20034;-44
2023/04/25 05:54:33;;;;;;;3.05;0.85;;;15.30;1.00;;;;;;5012494;28;20052;-43
2023/04/25 05:57:01;;;;;;;5.00;1.75;;;15.30;1.00;;;;;;5012979;28;20141;-45
2023/04/25 05:59:29;;;;;;;4.75;1.05;;;15.30;1.00;;;;;;5012826;28;20038;-45
2023/04/25 06:01:56;;;;;;;1.42;0.70;;;15.30;1.00;;;;;;5012824;28;20046;-44
2023/04/25 06:04:23;;;;;;;4.03;1.00;;;15.30;1.00;;;;;;5012655;28;20096;-43
2023/04/25 06:06:50;;;;;;;3.60;1.10;;;15.30;1.00;;;;;;5012964;28;20042;-44
2023/04/25 06:09:17;;;;;;;2.65;0.75;;;15.30;1.00;;;;;;5012348;28;20044;-43
2023/04/25 06:11:44;;;;;;;1.25;0.55;;;15.30;1.00;;;;;;5012854;28;20096;-44
2023/04/25 06:14:11;;;;;;;3.58;1.02;;;15.30;1.00;;;;;;5100758;23;20046;-45
2023/04/25 06:16:44;;;;;;;3.10;0.47;;;15.30;1.00;;;;;;4993239;28;20052;-43
2023/04/25 06:19:11;;;;;;;4.20;0.90;;;15.30;1.00;;;;;;4992832;28;20054;-43
2023/04/25 06:21:37;;;;;;;3.78;0.63;;;15.30;1.00;;;;;;4992982;28;20062;-45
2023/04/25 06:24:04;;;;;;;2.90;0.75;;;15.30;1.00;;;;;;4992214;28;20053;-43
2023/04/25 06:26:31;;;;;;;1.73;0.75;;;15.30;1.00;;;;;;4992290;28;20034;-43
2023/04/25 06:28:58;;;;;;;3.10;1.08;;;15.30;1.00;;;;;;4993853;28;20449;-43
2023/04/25 06:31:25;;;;;;;2.28;0.50;;;15.30;1.00;;;;;;4992663;28;20077;-44
2023/04/25 06:33:54;;;;;;;4.65;0.70;;;15.30;1.00;;;;;;4992381;28;20140;-44
2023/04/25 06:36:24;;;;;;;3.22;0.70;;;15.30;1.00;;;;;;4992744;28;20289;-44
2023/04/25 06:38:55;;;;;;;3.97;0.40;;;15.30;1.00;;;;;;4992450;28;20046;-44
2023/04/25 06:41:22;;;;;;;2.58;0.70;;;15.30;1.00;;;;;;4992322;28;20120;-43
2023/04/25 06:43:48;;;;;;;2.17;1.17;;;15.30;1.00;;;;;;4991923;28;20056;-43
2023/04/25 06:46:23;;;;;;;4.00;0.65;;;15.30;1.00;;;;;;4992469;28;20065;-43
2023/04/25 06:48:50;;;;;;;4.07;0.77;;;15.30;1.00;;;;;;5000453;28;20046;-42
2023/04/25 06:51:18;;;;;;;3.03;0.88;;;15.30;1.00;;;;;;4992213;28;20498;-42
2023/04/25 06:53:48;;;;;;;3.00;0.50;;;15.30;1.00;;;;;;4991841;28;20046;-42
2023/04/25 06:56:24;;;;;;;4.95;2.55;;;15.30;1.00;;;;;;4992217;28;20076;-43
2023/04/25 06:59:00;;;;;;;8.65;1.65;;;15.30;1.00;;;;;;4992035;28;20085;-42
2023/04/25 07:01:32;;;;;;;2.58;0.75;;;15.40;1.00;;;;;;4992228;28;20034;-43
2023/04/25 07:04:03;;;;;;;4.68;0.82;;;15.40;1.00;;;;;;4991407;28;20047;-43
2023/04/25 07:06:32;;;;;;;3.03;0.60;;;15.40;1.00;;;;;;4991983;28;20073;-42
2023/04/25 07:08:59;;;;;;;2.88;0.68;;;15.40;1.00;;;;;;4991945;28;20069;-43
2023/04/25 07:11:27;;;;;;;3.22;0.80;;;15.40;1.00;;;;;;4992052;28;20046;-42
2023/04/25 07:13:56;;;;;;;2.65;0.63;;;15.40;1.00;;;;;;4991390;28;20453;-44
2023/04/25 07:16:22;;;;;;;2.75;0.70;;;15.50;1.00;;;;;;4991829;28;20047;-44
2023/04/25 07:18:50;;;;;;;2.15;0.68;;;15.50;1.00;;;;;;4991893;28;20046;-44
2023/04/25 07:21:18;;;;;;;3.60;0.75;;;15.50;1.00;;;;;;4991672;28;20137;-43
2023/04/25 07:23:47;;;;;;;1.33;0.40;;;15.50;1.00;;;;;;4991419;28;20046;-43
2023/04/25 07:26:18;;;;;;;2.45;0.70;;;15.50;1.00;;;;;;4991630;28;20044;-43
2023/04/25 07:29:04;;;;;;;5.90;0.95;;;15.50;1.00;;;;;;4992593;28;20101;-42
2023/04/25 07:31:31;;;;;;;2.55;1.10;;;15.50;1.00;;;;;;4992935;28;20528;-42
2023/04/25 07:33:58;;;;;;;2.83;0.60;;;15.50;1.00;;;;;;4991232;28;20093;-42
2023/04/25 07:36:27;;;;;;;3.53;0.88;;;15.60;1.00;;;;;;4991434;28;20448;-45
2023/04/25 07:38:54;;;;;;;2.67;0.80;;;15.60;1.00;;;;;;4991279;28;20078;-43
2023/04/25 07:41:21;;;;;;;3.35;0.50;;;15.60;1.00;;;;;;4991524;28;20058;-43
2023/04/25 07:43:48;;;;;;;2.15;0.40;;;15.50;1.00;;;;;;4991222;28;20078;-43
2023/04/25 07:46:15;;;;;;;3.15;0.63;;;15.60;1.00;;;;;;4991432;28;20038;-43
2023/04/25 07:48:42;;;;;;;4.45;0.63;;;15.60;1.00;;;;;;4991285;28;20050;-47
2023/04/25 07:51:09;;;;;;;4.93;0.60;;;15.60;1.00;;;;;;4991437;28;20137;-43
2023/04/25 07:53:38;;;;;;;4.93;0.80;;;15.60;1.00;;;;;;4990976;28;20038;-43
2023/04/25 07:56:09;;;;;;;4.73;0.80;;;15.60;1.00;;;;;;4991107;28;20038;-43
2023/04/25 07:58:39;;;;;;;1.20;0.43;;;15.60;1.00;;;;;;4991215;28;20044;-43
2023/04/25 08:01:09;;;;;;;3.45;0.70;;;15.60;1.00;;;;;;4991228;28;20502;-42
2023/04/25 08:03:48;;;;;;;4.43;0.90;;;15.70;1.00;;;;;;4990771;28;20560;-42
2023/04/25 08:06:21;;;;;;;3.22;0.60;;;15.70;1.00;;;;;;4991271;28;20544;-44
2023/04/25 08:08:58;;;;;;;3.97;0.80;;;15.70;1.00;;;;;;4991128;28;20138;-43
2023/04/25 08:11:32;;;;;;;3.03;0.80;;;15.70;1.00;;;;;;4991230;28;20425;-43
2023/04/25 08:13:59;;;;;;;1.58;0.52;;;15.80;1.00;;;;;;4990790;28;20532;-42
2023/04/25 08:16:26;;;;;;;3.15;0.70;;;15.80;1.00;;;;;;4992439;28;20109;-43
2023/04/25 08:18:53;;;;;;;3.63;0.80;;;15.80;1.00;;;;;;4991112;28;20050;-42
2023/04/25 08:21:20;;;;;;;3.22;0.95;;;15.90;1.00;;;;;;4992405;28;20397;-42
2023/04/25 08:23:47;;;;;;;3.05;1.25;;;15.90;1.00;;;;;;4990627;28;20046;-44
2023/04/25 08:26:22;;;;;;;1.95;0.85;;;15.90;1.00;;;;;;4991032;28;20054;-42
2023/04/25 08:28:50;;;;;;;2.22;0.73;;;15.90;1.00;;;;;;4990843;28;20053;-43
2023/04/25 08:31:17;;;;;;;2.08;0.75;;;15.90;1.00;;;;;;4990827;28;20093;-42
2023/04/25 08:33:54;;;;;;;3.03;0.80;;;16.00;1.00;;;;;;4990524;28;20464;-43
2023/04/25 08:36:34;;;;;;;2.95;0.40;;;16.00;1.00;;;;;;4991087;28;20129;-44
2023/04/25 08:39:18;;;;;;;1.05;0.43;;;16.00;1.00;;;;;;4990713;28;20043;-43
2023/04/25 08:42:07;;;;;;;2.47;0.47;;;16.10;1.00;;;;;;4991130;28;20042;-43
2023/04/25 08:44:35;;;;;;;1.10;0.45;;;16.10;1.00;;;;;;4990352;28;20045;-42
2023/04/25 08:47:04;;;;;;;1.88;0.63;;;16.10;1.00;;;;;;4990908;28;20046;-43
2023/04/25 08:49:34;;;;;;;3.85;0.60;;;16.20;1.00;;;;;;4994125;28;20050;-43
2023/04/25 08:52:07;;;;;;;3.38;1.05;;;16.10;1.00;;;;;;4994480;28;20042;-44
2023/04/25 08:54:36;;;;;;;3.10;0.70;;;16.20;1.00;;;;;;4994208;28;20484;-43
2023/04/25 08:57:08;;;;;;;3.72;0.63;;;16.20;1.00;;;;;;4994344;28;20054;-42
2023/04/25 08:59:37;;;;;;;3.72;0.60;;;16.20;1.00;;;;;;4994412;28;20056;-43
2023/04/25 09:02:06;;;;;;;2.70;0.40;;;16.20;1.00;;;;;;4994728;28;20516;-44
2023/04/25 09:04:33;;;;;;;2.45;0.82;;;16.20;1.00;;;;;;4993549;28;20034;-43
2023/04/25 09:06:59;;;;;;;5.03;1.02;;;16.20;1.00;;;;;;4995483;28;20066;-45
2023/04/25 09:09:27;;;;;;;4.80;0.77;;;16.20;1.00;;;;;;4994034;28;20046;-45
2023/04/25 09:11:55;;;;;;;4.68;0.77;;;16.20;1.00;;;;;;4994269;28;20089;-43
2023/04/25 09:14:25;;;;;;;2.60;0.70;;;16.20;1.00;;;;;;4993435;28;20050;-43
2023/04/25 09:17:01;;;;;;;2.25;0.93;;;16.10;1.00;;;;;;4994024;28;20076;-45
2023/04/25 09:19:39;;;;;;;1.70;0.47;;;16.20;1.00;;;;;;4994012;28;20501;-42
2023/04/25 09:22:22;;;;;;;2.70;0.77;;;16.20;1.00;;;;;;4994059;28;20052;-46
2023/04/25 09:24:50;;;;;;;2.38;1.02;;;16.20;1.00;;;;;;4993239;28;20043;-43
2023/04/25 09:27:22;;;;;;;1.77;0.40;;;16.20;1.00;;;;;;4993881;28;20039;-42
2023/04/25 09:29:59;;;;;;;1.55;0.38;;;16.20;1.00;;;;;;4993955;28;20093;-45
2023/04/25 09:32:28;;;;;;;1.00;0.50;;;16.30;1.00;;;;;;4993920;28;20038;-45
2023/04/25 09:34:57;;;;;;;2.45;0.75;;;16.30;1.00;;;;;;4993108;28;20043;-42
2023/04/25 09:37:28;;;;;;;3.20;0.50;;;16.30;1.00;;;;;;4993785;28;20070;-43
2023/04/25 09:40:14;;;;;;;3.83;0.95;;;16.30;1.00;;;;;;4994925;28;20062;-43
2023/04/25 09:43:29;;;;;;;3.60;0.82;;;16.30;1.00;;;;;;4994490;28;20085;-42
2023/04/25 09:45:59;;;;;;;3.15;0.73;;;16.30;1.00;;;;;;4993489;28;20077;-42
2023/04/25 09:48:28;;;;;;;3.80;0.77;;;16.30;1.00;;;;;;4993536;28;21064;-43
2023/04/25 09:51:06;;;;;;;3.25;0.75;;;16.30;1.00;;;;;;4993222;28;20142;-42
2023/04/25 09:53:39;;;;;;;4.43;1.00;;;16.30;1.00;;;;;;4993070;28;20038;-42
2023/04/25 09:56:31;;;;;;;5.45;0.68;;;16.30;1.00;;;;;;4993372;28;21353;-43
2023/04/25 09:59:00;;;;;;;2.70;0.63;;;16.30;1.00;;;;;;4994396;28;20046;-42
2023/04/25 10:01:27;;;;;;;4.07;0.70;;;16.30;1.00;;;;;;4993880;28;20097;-42
2023/04/25 10:04:10;;;;;;;3.42;0.57;;;16.40;1.00;;;;;;4992819;28;20078;-43
2023/04/25 10:07:01;;;;;;;4.97;0.90;;;16.40;1.00;;;;;;4986438;28;20058;-42
2023/04/25 10:09:33;;;;;;;3.03;0.63;;;16.40;1.00;;;;;;4993129;28;20318;-43
2023/04/25 10:12:00;;;;;;;2.25;0.60;;;16.40;1.00;;;;;;4994388;28;20434;-42
2023/04/25 10:14:28;;;;;;;2.63;0.55;;;16.40;1.00;;;;;;4993736;28;20088;-43
2023/04/25 10:16:56;;;;;;;3.22;0.50;;;16.40;1.00;;;;;;5000619;28;20042;-42
2023/04/25 10:19:25;;;;;;;3.80;0.57;;;16.50;1.00;;;;;;4995297;28;20042;-43
2023/04/25 10:22:03;;;;;;;3.72;0.52;;;16.40;1.00;;;;;;4994271;28;20053;-42
2023/04/25 10:24:30;;;;;;;1.98;0.43;;;16.50;1.00;;;;;;4993726;28;20409;-44
2023/04/25 10:26:58;;;;;;;2.33;0.73;;;16.40;1.00;;;;;;4994119;28;20049;-43
2023/04/25 10:29:26;;;;;;;5.32;1.05;;;16.50;1.00;;;;;;4993956;28;20053;-45
2023/04/25 10:31:53;;;;;;;1.90;0.70;;;16.50;1.00;;;;;;4994013;28;20043;-47
2023/04/25 10:34:38;;;;;;;1.00;0.32;;;16.50;1.00;;;;;;4993231;28;20046;-43
2023/04/25 10:37:05;;;;;;;4.00;0.57;;;16.40;1.00;;;;;;4994063;28;20494;-45
2023/04/25 10:39:32;;;;;;;2.17;0.57;;;16.50;1.00;;;;;;4993727;28;20042;-44
2023/04/25 10:42:02;;;;;;;2.58;0.60;;;16.50;1.00;;;;;;4993975;28;20039;-44
2023/04/25 10:44:30;;;;;;;1.80;0.73;;;16.50;1.00;;;;;;4993003;28;20038;-48
2023/04/25 10:46:59;;;;;;;3.38;0.82;;;16.50;1.00;;;;;;4993547;28;20038;-44
2023/04/25 10:49:33;;;;;;;2.35;0.45;;;16.50;1.00;;;;;;4992368;28;20054;-43
2023/04/25 10:52:22;;;;;;;3.65;0.88;;;16.50;1.00;;;;;;5123041;23;20056;-42
2023/04/25 10:54:57;;;;;;;2.35;0.57;;;16.50;1.00;;;;;;5012709;28;20504;-44
2023/04/25 10:57:38;;;;;;;1.50;0.43;;;16.50;1.00;;;;;;5013371;28;20127;-46
2023/04/25 11:00:12;;;;;;;4.50;0.88;;;16.50;1.00;;;;;;5013054;28;20117;-43
2023/04/25 11:02:53;;;;;;;2.95;0.98;;;16.50;1.00;;;;;;5012929;28;20038;-43
2023/04/25 11:05:34;;;;;;;3.67;0.52;;;16.50;1.00;;;;;;5012700;28;20116;-44
2023/04/25 11:08:18;;;;;;;2.53;0.70;;;16.50;1.00;;;;;;5012874;28;20046;-43
2023/04/25 11:10:45;;;;;;;2.25;0.70;;;16.50;1.00;;;;;;5012738;28;20476;-44
2023/04/25 11:13:11;;;;;;;3.03;0.85;;;16.50;1.00;;;;;;5012244;28;20042;-43
2023/04/25 11:15:38;;;;;;;2.20;0.60;;;16.50;1.00;;;;;;5012704;28;20038;-42
2023/04/25 11:18:06;;;;;;;4.07;0.80;;;16.50;1.00;;;;;;5012839;28;20045;-45
2023/04/25 11:23:45;;;;;;;3.38;0.70;;;16.50;1.00;;;;;;4895379;29;20051;-45
2023/04/25 11:26:13;;;;;;;2.67;1.17;;;16.50;1.00;;;;;;4897284;29;20040;-42
2023/04/25 11:28:40;;;;;;;3.50;0.65;;;16.50;1.00;;;;;;4916185;29;20427;-42
2023/04/25 11:31:09;;;;;;;3.50;0.93;;;16.50;1.00;;;;;;4915942;29;20055;-44
2023/04/25 11:33:36;;;;;;;2.20;0.70;;;16.50;1.00;;;;;;4915682;29;20036;-43
2023/04/25 11:36:03;;;;;;;4.78;0.75;;;16.50;1.00;;;;;;4915890;29;20048;-45
2023/04/25 11:38:30;;;;;;;4.80;0.90;;;16.50;1.00;;;;;;4916192;29;20055;-42
2023/04/25 11:40:58;;;;;;;4.55;0.90;;;16.50;1.00;;;;;;4915865;29;20062;-42
2023/04/25 11:43:26;;;;;;;2.88;0.77;;;16.50;1.00;;;;;;4915495;29;20052;-43
2023/04/25 11:45:52;;;;;;;3.33;0.75;;;16.50;1.00;;;;;;4915533;29;20071;-43
2023/04/25 11:48:20;;;;;;;2.67;0.63;;;16.50;1.00;;;;;;4914702;29;20306;-43
2023/04/25 11:50:53;;;;;;;4.90;1.42;;;16.50;1.00;;;;;;4915862;29;20048;-44
2023/04/25 11:53:20;;;;;;;3.47;0.75;;;16.50;1.00;;;;;;4908572;29;20386;-44
2023/04/25 11:55:47;;;;;;;3.92;1.02;;;16.50;1.00;;;;;;4915725;29;20036;-42
2023/04/25 11:58:14;;;;;;;1.90;0.70;;;16.50;1.00;;;;;;4915825;29;20445;-43
2023/04/25 12:00:43;;;;;;;2.78;1.13;;;16.50;1.00;;;;;;4915503;29;20400;-46
2023/04/25 12:03:18;;;;;;;2.45;1.02;;;16.50;1.00;;;;;;4915347;29;20072;-45
2023/04/25 12:05:45;;;;;;;3.45;0.80;;;16.50;1.00;;;;;;4915517;29;20397;-43
2023/04/25 12:08:15;;;;;;;3.33;1.00;;;16.50;1.00;;;;;;4915672;29;20412;-43
2023/04/25 12:10:45;;;;;;;3.40;0.63;;;16.50;1.00;;;;;;4915593;29;20056;-44
2023/04/25 12:13:38;;;;;;;1.77;0.68;;;16.50;1.00;;;;;;4915377;29;20052;-44
2023/04/25 12:16:05;;;;;;;1.70;0.70;;;16.50;1.00;;;;;;4913840;29;20592;-43
2023/04/25 12:18:35;;;;;;;3.17;0.47;;;16.50;1.00;;;;;;4915443;29;20283;-43
2023/04/25 12:21:04;;;;;;;2.35;1.20;;;16.50;1.00;;;;;;4915561;29;20048;-43
2023/04/25 12:23:31;;;;;;;4.60;1.10;;;16.50;1.00;;;;;;5270940;23;20052;-42
2023/04/25 12:25:58;;;;;;;5.15;0.60;;;16.50;1.00;;;;;;4905983;29;20048;-46
2023/04/25 12:28:27;;;;;;;2.40;0.47;;;16.50;1.00;;;;;;4916910;29;20373;-42
2023/04/25 12:31:04;;;;;;;1.48;0.80;;;16.50;1.00;;;;;;4906493;29;20110;-42
2023/04/25 12:33:36;;;;;;;3.35;0.50;;;16.50;1.00;;;;;;4917643;29;20119;-44
2023/04/25 12:36:08;;;;;;;1.70;0.55;;;16.50;1.00;;;;;;4919225;29;20559;-45
2023/04/25 12:38:38;;;;;;;3.33;0.47;;;16.50;1.00;;;;;;4919084;29;20504;-43
2023/04/25 12:41:05;;;;;;;4.55;0.82;;;16.50;1.00;;;;;;4919103;29;20044;-43
2023/04/25 12:43:31;;;;;;;1.88;0.40;;;16.50;1.00;;;;;;4918443;29;20048;-43
2023/04/25 12:45:58;;;;;;;2.03;0.73;;;16.50;1.00;;;;;;4918892;29;20048;-44
2023/04/25 12:48:25;;;;;;;1.98;0.95;;;16.50;1.00;;;;;;4918908;29;20043;-46
2023/04/25 12:50:52;;;;;;;3.20;0.50;;;16.40;1.00;;;;;;4918959;29;20055;-44
2023/04/25 12:53:21;;;;;;;1.67;0.65;;;16.40;1.00;;;;;;4918835;29;20080;-44
2023/04/25 12:55:48;;;;;;;3.35;0.60;;;16.50;1.00;;;;;;5031292;23;20047;-43
2023/04/25 12:58:17;;;;;;;2.75;1.33;;;16.40;1.00;;;;;;4937600;29;20099;-42
2023/04/25 13:00:45;;;;;;;2.22;0.65;;;16.40;1.00;;;;;;4937669;29;20059;-42
2023/04/25 13:03:12;;;;;;;2.05;0.75;;;16.40;1.00;;;;;;4937313;29;20058;-42
2023/04/25 13:05:39;;;;;;;5.22;0.88;;;16.50;1.00;;;;;;4937542;29;20043;-43
2023/04/25 13:08:06;;;;;;;3.50;1.25;;;16.50;1.00;;;;;;4937720;29;20050;-45
2023/04/25 13:10:33;;;;;;;3.47;0.50;;;16.40;1.00;;;;;;4936378;29;20046;-44
2023/04/25 13:13:01;;;;;;;2.05;0.60;;;16.40;1.00;;;;;;4937343;29;20048;-44
2023/04/25 13:15:28;;;;;;;5.13;0.93;;;16.50;1.00;;;;;;4937279;29;20048;-42
2023/04/25 13:17:55;;;;;;;2.47;0.57;;;16.40;1.00;;;;;;4937529;29;20056;-42
2023/04/25 13:20:22;;;;;;;2.88;0.70;;;16.50;1.00;;;;;;4937407;29;20052;-42